sensor_id;sensor_type;location;lat;lon;timestamp;pressure;altitude;pressure_sealevel;temperature;humidity
48555;BME280;34336;48.270;16.716;2023-02-19T00:00:12;76260.75;;;18.16;66.78
48555;BME280;34336;48.270;16.716;2023-02-19T00:02:40;76264.59;;;18.16;66.96
48555;BME280;34336;48.270;16.716;2023-02-19T00:05:07;76264.59;;;18.16;67.07
48555;BME280;34336;48.270;16.716;2023-02-19T00:07:33;76266.53;;;18.16;67.10
48555;BME280;34336;48.270;16.716;2023-02-19T00:10:00;76270.38;;;18.16;67.25
48555;BME280;34336;48.270;16.716;2023-02-19T00:12:27;76266.53;;;18.16;67.43
48555;BME280;34336;48.270;16.716;2023-02-19T00:14:53;76270.38;;;18.16;67.42
48555;BME280;34336;48.270;16.716;2023-02-19T00:17:22;76266.53;;;18.16;67.05
48555;BME280;34336;48.270;16.716;2023-02-19T00:19:49;76270.38;;;18.16;67.04
48555;BME280;34336;48.270;16.716;2023-02-19T00:22:15;76274.22;;;18.16;67.02
48555;BME280;34336;48.270;16.716;2023-02-19T00:24:42;76266.53;;;18.16;67.00
48555;BME280;34336;48.270;16.716;2023-02-19T00:27:09;76260.75;;;18.16;66.57
48555;BME280;34336;48.270;16.716;2023-02-19T00:29:35;76258.81;;;18.16;66.01
48555;BME280;34336;48.270;16.716;2023-02-19T00:32:02;76262.66;;;18.16;66.24
48555;BME280;34336;48.270;16.716;2023-02-19T00:34:29;76274.22;;;18.16;66.24
48555;BME280;34336;48.270;16.716;2023-02-19T00:36:56;76276.16;;;18.16;66.54
48555;BME280;34336;48.270;16.716;2023-02-19T00:39:23;76281.94;;;18.16;66.62
48555;BME280;34336;48.270;16.716;2023-02-19T00:41:50;76285.78;;;18.16;66.36
48555;BME280;34336;48.270;16.716;2023-02-19T00:44:16;76285.78;;;18.16;66.70
48555;BME280;34336;48.270;16.716;2023-02-19T00:46:47;76285.78;;;18.16;66.59
48555;BME280;34336;48.270;16.716;2023-02-19T00:49:19;76285.78;;;18.16;66.76
48555;BME280;34336;48.270;16.716;2023-02-19T00:51:47;76285.78;;;18.16;66.96
48555;BME280;34336;48.270;16.716;2023-02-19T00:54:14;76289.66;;;18.16;67.02
48555;BME280;34336;48.270;16.716;2023-02-19T00:56:41;76291.56;;;18.16;66.88
48555;BME280;34336;48.270;16.716;2023-02-19T00:59:08;76291.56;;;18.16;66.95
48555;BME280;34336;48.270;16.716;2023-02-19T01:01:35;76293.50;;;18.16;67.27
48555;BME280;34336;48.270;16.716;2023-02-19T01:04:01;76293.50;;;18.16;67.58
48555;BME280;34336;48.270;16.716;2023-02-19T01:06:31;76308.91;;;18.16;68.21
48555;BME280;34336;48.270;16.716;2023-02-19T01:09:00;76316.63;;;18.16;68.72
48555;BME280;34336;48.270;16.716;2023-02-19T01:11:26;76324.34;;;18.16;69.70
48555;BME280;34336;48.270;16.716;2023-02-19T01:13:57;76322.41;;;18.16;70.26
48555;BME280;34336;48.270;16.716;2023-02-19T01:16:25;76320.47;;;18.16;70.21
48555;BME280;34336;48.270;16.716;2023-02-19T01:18:53;76314.69;;;18.16;69.81
48555;BME280;34336;48.270;16.716;2023-02-19T01:21:22;76324.34;;;18.16;69.44
48555;BME280;34336;48.270;16.716;2023-02-19T01:23:50;76324.34;;;18.16;69.90
48555;BME280;34336;48.270;16.716;2023-02-19T01:26:21;76332.03;;;18.16;70.04
48555;BME280;34336;48.270;16.716;2023-02-19T01:28:48;76332.03;;;18.16;70.22
48555;BME280;34336;48.270;16.716;2023-02-19T01:31:18;76341.69;;;18.16;70.56
48555;BME280;34336;48.270;16.716;2023-02-19T01:34:03;76343.59;;;18.16;71.11
48555;BME280;34336;48.270;16.716;2023-02-19T01:36:32;76351.31;;;18.16;71.73
48555;BME280;34336;48.270;16.716;2023-02-19T01:39:00;76359.00;;;18.16;72.05
48555;BME280;34336;48.270;16.716;2023-02-19T01:41:33;76359.00;;;18.16;72.64
48555;BME280;34336;48.270;16.716;2023-02-19T01:46:38;76366.72;;;18.16;73.62
48555;BME280;34336;48.270;16.716;2023-02-19T01:49:13;76353.25;;;18.16;73.68
48555;BME280;34336;48.270;16.716;2023-02-19T01:51:44;76355.16;;;18.16;73.93
48555;BME280;34336;48.270;16.716;2023-02-19T01:54:12;76357.09;;;18.16;74.29
48555;BME280;34336;48.270;16.716;2023-02-19T01:56:43;76364.81;;;18.16;74.53
48555;BME280;34336;48.270;16.716;2023-02-19T01:59:11;76366.72;;;18.16;74.85
48555;BME280;34336;48.270;16.716;2023-02-19T02:01:38;76364.81;;;18.16;75.08
48555;BME280;34336;48.270;16.716;2023-02-19T02:04:08;76366.72;;;18.16;74.96
48555;BME280;34336;48.270;16.716;2023-02-19T02:06:50;76374.44;;;18.16;75.27
48555;BME280;34336;48.270;16.716;2023-02-19T02:09:18;76378.28;;;18.16;75.59
48555;BME280;34336;48.270;16.716;2023-02-19T02:12:04;76384.06;;;18.16;75.94
48555;BME280;34336;48.270;16.716;2023-02-19T02:14:34;76372.50;;;18.16;76.10
48555;BME280;34336;48.270;16.716;2023-02-19T02:30:52;76405.25;;;18.16;78.03
48555;BME280;34336;48.270;16.716;2023-02-19T02:35:56;76393.69;;;18.16;77.94
48555;BME280;34336;48.270;16.716;2023-02-19T02:38:26;76391.78;;;18.16;78.12
48555;BME280;34336;48.270;16.716;2023-02-19T02:40:54;76386.00;;;18.16;78.40
48555;BME280;34336;48.270;16.716;2023-02-19T02:43:23;76387.91;;;18.16;77.97
48555;BME280;34336;48.270;16.716;2023-02-19T02:45:49;76382.13;;;18.16;78.21
48555;BME280;34336;48.270;16.716;2023-02-19T02:53:48;76382.13;;;18.16;78.33
48555;BME280;34336;48.270;16.716;2023-02-19T02:56:38;76387.91;;;18.16;78.59
48555;BME280;34336;48.270;16.716;2023-02-19T02:59:09;76389.84;;;18.16;78.55
48555;BME280;34336;48.270;16.716;2023-02-19T03:02:03;76397.56;;;18.16;78.77
48555;BME280;34336;48.270;16.716;2023-02-19T03:07:35;76393.69;;;18.16;78.80
48555;BME280;34336;48.270;16.716;2023-02-19T03:10:06;76401.41;;;18.16;78.92
48555;BME280;34336;48.270;16.716;2023-02-19T03:12:36;76395.63;;;18.16;78.84
48555;BME280;34336;48.270;16.716;2023-02-19T03:15:27;76387.91;;;18.16;78.57
48555;BME280;34336;48.270;16.716;2023-02-19T03:18:15;76380.22;;;18.16;77.74
48555;BME280;34336;48.270;16.716;2023-02-19T03:21:05;76386.00;;;18.16;77.53
48555;BME280;34336;48.270;16.716;2023-02-19T03:23:34;76378.28;;;18.16;77.03
48555;BME280;34336;48.270;16.716;2023-02-19T03:26:21;76374.44;;;18.16;77.06
48555;BME280;34336;48.270;16.716;2023-02-19T03:28:51;76372.50;;;18.16;76.39
48555;BME280;34336;48.270;16.716;2023-02-19T03:31:41;76372.50;;;18.16;76.37
48555;BME280;34336;48.270;16.716;2023-02-19T03:34:14;76359.00;;;18.16;75.92
48555;BME280;34336;48.270;16.716;2023-02-19T03:36:47;76355.16;;;18.16;75.49
48555;BME280;34336;48.270;16.716;2023-02-19T03:39:19;76351.31;;;18.16;75.15
48555;BME280;34336;48.270;16.716;2023-02-19T03:41:54;76360.94;;;18.16;75.40
48555;BME280;34336;48.270;16.716;2023-02-19T03:44:50;76364.81;;;18.16;75.50
48555;BME280;34336;48.270;16.716;2023-02-19T03:47:24;76374.44;;;18.16;76.13
48555;BME280;34336;48.270;16.716;2023-02-19T03:49:58;76374.44;;;18.16;76.13
48555;BME280;34336;48.270;16.716;2023-02-19T03:52:40;76378.28;;;18.16;76.68
48555;BME280;34336;48.270;16.716;2023-02-19T03:55:16;76366.72;;;18.16;76.93
48555;BME280;34336;48.270;16.716;2023-02-19T03:58:04;76359.00;;;18.16;77.74
48555;BME280;34336;48.270;16.716;2023-02-19T04:00:55;76366.72;;;18.16;78.29
48555;BME280;34336;48.270;16.716;2023-02-19T04:03:25;76353.25;;;18.16;78.22
48555;BME280;34336;48.270;16.716;2023-02-19T04:06:16;76345.53;;;18.16;77.63
48555;BME280;34336;48.270;16.716;2023-02-19T04:08:47;76345.53;;;18.16;77.48
48555;BME280;34336;48.270;16.716;2023-02-19T04:11:18;76351.31;;;18.16;77.71
48555;BME280;34336;48.270;16.716;2023-02-19T04:14:08;76347.47;;;18.16;78.09
48555;BME280;34336;48.270;16.716;2023-02-19T04:16:39;76351.31;;;18.16;78.56
48555;BME280;34336;48.270;16.716;2023-02-19T04:19:11;76347.47;;;18.16;78.75
48555;BME280;34336;48.270;16.716;2023-02-19T04:21:39;76349.38;;;18.16;79.52
48555;BME280;34336;48.270;16.716;2023-02-19T04:24:15;76351.31;;;18.16;79.93
48555;BME280;34336;48.270;16.716;2023-02-19T04:26:44;76351.31;;;18.16;80.99
48555;BME280;34336;48.270;16.716;2023-02-19T04:29:11;76347.47;;;18.16;82.50
48555;BME280;34336;48.270;16.716;2023-02-19T04:31:38;76347.47;;;18.16;83.74
48555;BME280;34336;48.270;16.716;2023-02-19T04:34:04;76351.31;;;18.16;85.02
48555;BME280;34336;48.270;16.716;2023-02-19T04:36:32;76349.38;;;18.16;85.90
48555;BME280;34336;48.270;16.716;2023-02-19T04:38:59;76349.38;;;18.16;85.93
48555;BME280;34336;48.270;16.716;2023-02-19T04:41:26;76339.75;;;18.16;85.98
48555;BME280;34336;48.270;16.716;2023-02-19T04:43:52;76337.81;;;18.16;85.89
48555;BME280;34336;48.270;16.716;2023-02-19T04:46:19;76337.81;;;18.16;85.53
48555;BME280;34336;48.270;16.716;2023-02-19T04:48:47;76335.91;;;18.16;84.43
48555;BME280;34336;48.270;16.716;2023-02-19T04:51:13;76330.13;;;18.16;84.08
48555;BME280;34336;48.270;16.716;2023-02-19T04:53:40;76328.19;;;18.16;84.03
48555;BME280;34336;48.270;16.716;2023-02-19T04:56:10;76324.34;;;18.16;84.34
48555;BME280;34336;48.270;16.716;2023-02-19T04:58:38;76333.97;;;18.16;84.65
48555;BME280;34336;48.270;16.716;2023-02-19T05:01:05;76330.13;;;18.16;84.64
48555;BME280;34336;48.270;16.716;2023-02-19T05:03:32;76328.19;;;18.16;84.34
48555;BME280;34336;48.270;16.716;2023-02-19T05:06:08;76324.34;;;18.16;84.83
48555;BME280;34336;48.270;16.716;2023-02-19T05:08:36;76316.63;;;18.16;85.61
48555;BME280;34336;48.270;16.716;2023-02-19T05:11:05;76314.69;;;18.16;86.67
48555;BME280;34336;48.270;16.716;2023-02-19T05:13:32;76316.63;;;18.16;88.16
48555;BME280;34336;48.270;16.716;2023-02-19T05:16:11;76320.47;;;18.16;89.78
48555;BME280;34336;48.270;16.716;2023-02-19T05:18:40;76322.41;;;18.16;91.40
48555;BME280;34336;48.270;16.716;2023-02-19T05:21:08;76322.41;;;18.16;92.83
48555;BME280;34336;48.270;16.716;2023-02-19T05:23:36;76320.47;;;18.16;92.80
48555;BME280;34336;48.270;16.716;2023-02-19T05:26:06;76333.97;;;18.16;94.32
48555;BME280;34336;48.270;16.716;2023-02-19T05:28:33;76335.91;;;18.16;95.46
48555;BME280;34336;48.270;16.716;2023-02-19T05:31:04;76339.75;;;18.16;95.89
48555;BME280;34336;48.270;16.716;2023-02-19T05:33:32;76339.75;;;18.16;96.16
48555;BME280;34336;48.270;16.716;2023-02-19T05:36:06;76328.19;;;18.16;96.51
48555;BME280;34336;48.270;16.716;2023-02-19T05:38:34;76335.91;;;18.16;96.94
48555;BME280;34336;48.270;16.716;2023-02-19T05:41:16;76335.91;;;18.16;98.58
48555;BME280;34336;48.270;16.716;2023-02-19T05:43:45;76335.91;;;18.16;99.11
48555;BME280;34336;48.270;16.716;2023-02-19T05:46:15;76343.59;;;18.16;100.00
48555;BME280;34336;48.270;16.716;2023-02-19T05:48:42;76333.97;;;18.16;100.00
48555;BME280;34336;48.270;16.716;2023-02-19T05:51:11;76333.97;;;18.16;100.00
48555;BME280;34336;48.270;16.716;2023-02-19T05:53:42;76332.03;;;18.16;100.00
48555;BME280;34336;48.270;16.716;2023-02-19T05:56:31;76332.03;;;18.16;100.00
48555;BME280;34336;48.270;16.716;2023-02-19T05:59:00;76332.03;;;18.16;100.00
48555;BME280;34336;48.270;16.716;2023-02-19T06:01:29;76332.03;;;18.16;100.00
48555;BME280;34336;48.270;16.716;2023-02-19T06:03:57;76335.91;;;18.16;100.00
48555;BME280;34336;48.270;16.716;2023-02-19T06:06:24;76339.75;;;18.16;100.00
48555;BME280;34336;48.270;16.716;2023-02-19T06:08:51;76351.31;;;18.16;100.00
48555;BME280;34336;48.270;16.716;2023-02-19T06:11:19;76339.75;;;18.16;100.00
48555;BME280;34336;48.270;16.716;2023-02-19T06:13:46;76343.59;;;18.16;100.00
48555;BME280;34336;48.270;16.716;2023-02-19T06:16:15;76339.75;;;18.16;100.00
48555;BME280;34336;48.270;16.716;2023-02-19T06:18:43;76337.81;;;18.16;100.00
48555;BME280;34336;48.270;16.716;2023-02-19T06:21:11;76337.81;;;18.16;100.00
48555;BME280;34336;48.270;16.716;2023-02-19T06:23:38;76337.81;;;18.16;100.00
48555;BME280;34336;48.270;16.716;2023-02-19T06:26:22;76345.53;;;18.16;100.00
48555;BME280;34336;48.270;16.716;2023-02-19T06:28:51;76351.31;;;18.16;100.00
48555;BME280;34336;48.270;16.716;2023-02-19T06:31:20;76360.94;;;18.16;100.00
48555;BME280;34336;48.270;16.716;2023-02-19T06:33:48;76355.16;;;18.16;100.00
48555;BME280;34336;48.270;16.716;2023-02-19T06:36:18;76359.00;;;18.16;100.00
48555;BME280;34336;48.270;16.716;2023-02-19T06:38:45;76359.00;;;18.16;100.00
48555;BME280;34336;48.270;16.716;2023-02-19T06:41:12;76355.16;;;18.16;100.00
48555;BME280;34336;48.270;16.716;2023-02-19T06:43:40;76353.25;;;18.16;100.00
48555;BME280;34336;48.270;16.716;2023-02-19T06:46:07;76351.31;;;18.16;100.00
48555;BME280;34336;48.270;16.716;2023-02-19T06:48:34;76359.00;;;18.16;100.00
48555;BME280;34336;48.270;16.716;2023-02-19T06:51:01;76355.16;;;18.16;100.00
48555;BME280;34336;48.270;16.716;2023-02-19T06:53:28;76357.09;;;18.16;100.00
48555;BME280;34336;48.270;16.716;2023-02-19T06:56:00;76357.09;;;18.16;100.00
48555;BME280;34336;48.270;16.716;2023-02-19T06:58:27;76359.00;;;18.16;100.00
48555;BME280;34336;48.270;16.716;2023-02-19T07:00:54;76347.47;;;18.16;100.00
48555;BME280;34336;48.270;16.716;2023-02-19T07:03:21;76339.75;;;18.16;100.00
48555;BME280;34336;48.270;16.716;2023-02-19T07:05:48;76335.91;;;18.16;100.00
48555;BME280;34336;48.270;16.716;2023-02-19T07:08:15;76322.41;;;18.16;100.00
48555;BME280;34336;48.270;16.716;2023-02-19T07:10:43;76318.56;;;18.16;100.00
48555;BME280;34336;48.270;16.716;2023-02-19T07:13:10;76308.91;;;18.16;100.00
48555;BME280;34336;48.270;16.716;2023-02-19T07:15:37;76301.22;;;18.16;99.96
48555;BME280;34336;48.270;16.716;2023-02-19T07:18:04;76280.00;;;18.16;96.21
48555;BME280;34336;48.270;16.716;2023-02-19T07:20:32;76266.53;;;18.16;95.61
48555;BME280;34336;48.270;16.716;2023-02-19T07:22:59;76262.66;;;18.16;93.28
48555;BME280;34336;48.270;16.716;2023-02-19T07:25:26;76251.13;;;18.16;91.67
48555;BME280;34336;48.270;16.716;2023-02-19T07:27:52;76243.41;;;18.16;90.24
48555;BME280;34336;48.270;16.716;2023-02-19T07:30:19;76241.47;;;18.16;89.31
48555;BME280;34336;48.270;16.716;2023-02-19T07:32:46;76212.56;;;18.16;86.88
48555;BME280;34336;48.270;16.716;2023-02-19T07:35:12;76195.22;;;18.16;86.48
48555;BME280;34336;48.270;16.716;2023-02-19T07:37:40;76185.59;;;18.16;84.77
48555;BME280;34336;48.270;16.716;2023-02-19T07:40:07;76166.34;;;18.16;84.00
48555;BME280;34336;48.270;16.716;2023-02-19T07:42:33;76150.91;;;18.16;82.67
48555;BME280;34336;48.270;16.716;2023-02-19T07:45:02;76135.50;;;18.16;81.69
48555;BME280;34336;48.270;16.716;2023-02-19T07:47:29;76129.72;;;18.16;81.33
48555;BME280;34336;48.270;16.716;2023-02-19T07:49:56;76123.94;;;18.16;80.91
48555;BME280;34336;48.270;16.716;2023-02-19T07:52:22;76127.78;;;18.16;79.56
48555;BME280;34336;48.270;16.716;2023-02-19T07:54:49;76133.56;;;18.16;79.31
48555;BME280;34336;48.270;16.716;2023-02-19T07:57:16;76129.72;;;18.16;78.68
48555;BME280;34336;48.270;16.716;2023-02-19T07:59:42;76122.00;;;18.16;79.25
48555;BME280;34336;48.270;16.716;2023-02-19T08:02:16;76120.09;;;18.16;78.54
48555;BME280;34336;48.270;16.716;2023-02-19T08:05:03;76118.16;;;18.16;78.30
48555;BME280;34336;48.270;16.716;2023-02-19T08:21:13;76133.56;;;18.16;77.69
48555;BME280;34336;48.270;16.716;2023-02-19T08:23:51;76141.28;;;18.16;77.46
48555;BME280;34336;48.270;16.716;2023-02-19T08:26:19;76139.34;;;18.16;76.08
48555;BME280;34336;48.270;16.716;2023-02-19T08:28:48;76123.94;;;18.16;75.65
48555;BME280;34336;48.270;16.716;2023-02-19T08:31:15;76120.09;;;18.16;76.21
48555;BME280;34336;48.270;16.716;2023-02-19T08:33:42;76127.78;;;18.16;75.97
48555;BME280;34336;48.270;16.716;2023-02-19T08:36:14;76143.22;;;18.16;76.76
48555;BME280;34336;48.270;16.716;2023-02-19T08:38:40;76139.34;;;18.16;76.96
48555;BME280;34336;48.270;16.716;2023-02-19T08:41:09;76127.78;;;18.16;76.32
48555;BME280;34336;48.270;16.716;2023-02-19T08:51:39;76012.19;;;18.16;72.15
48555;BME280;34336;48.270;16.716;2023-02-19T08:54:06;75969.81;;;18.16;72.43
48555;BME280;34336;48.270;16.716;2023-02-19T08:56:32;75954.38;;;18.16;71.20
48555;BME280;34336;48.270;16.716;2023-02-19T08:58:59;75912.00;;;18.16;70.13
48555;BME280;34336;48.270;16.716;2023-02-19T09:01:25;75919.72;;;18.16;68.97
48555;BME280;34336;48.270;16.716;2023-02-19T09:03:52;75942.84;;;18.16;68.51
48555;BME280;34336;48.270;16.716;2023-02-19T09:06:19;75981.38;;;18.16;69.03
48555;BME280;34336;48.270;16.716;2023-02-19T09:08:46;75992.94;;;18.16;69.71
48555;BME280;34336;48.270;16.716;2023-02-19T09:11:13;75989.06;;;18.16;70.25
48555;BME280;34336;48.270;16.716;2023-02-19T09:13:41;76004.47;;;18.16;69.91
48555;BME280;34336;48.270;16.716;2023-02-19T09:16:08;76006.41;;;18.16;69.82
48555;BME280;34336;48.270;16.716;2023-02-19T09:18:35;75992.94;;;18.16;70.14
48555;BME280;34336;48.270;16.716;2023-02-19T09:21:03;75954.38;;;18.16;69.84
48555;BME280;34336;48.270;16.716;2023-02-19T09:23:34;76004.47;;;18.16;69.88
48555;BME280;34336;48.270;16.716;2023-02-19T09:26:02;76019.91;;;18.16;70.16
48555;BME280;34336;48.270;16.716;2023-02-19T09:28:32;76039.16;;;18.16;70.88
48555;BME280;34336;48.270;16.716;2023-02-19T09:31:06;75989.06;;;18.16;70.56
48555;BME280;34336;48.270;16.716;2023-02-19T09:33:34;75902.38;;;18.16;69.87
48555;BME280;34336;48.270;16.716;2023-02-19T09:36:01;75846.50;;;18.16;68.20
48555;BME280;34336;48.270;16.716;2023-02-19T09:38:28;75831.09;;;18.16;67.00
48555;BME280;34336;48.270;16.716;2023-02-19T09:40:56;75781.00;;;18.16;66.16
48555;BME280;34336;48.270;16.716;2023-02-19T09:43:26;75827.22;;;18.16;65.86
48555;BME280;34336;48.270;16.716;2023-02-19T09:46:01;75702.00;;;18.16;65.59
48555;BME280;34336;48.270;16.716;2023-02-19T09:48:28;75680.81;;;18.16;63.08
48555;BME280;34336;48.270;16.716;2023-02-19T09:50:56;75734.75;;;18.16;63.83
48555;BME280;34336;48.270;16.716;2023-02-19T09:53:28;75698.16;;;18.16;61.66
48555;BME280;34336;48.270;16.716;2023-02-19T09:56:00;75711.63;;;18.16;60.97
48555;BME280;34336;48.270;16.716;2023-02-19T09:58:35;75676.97;;;18.16;59.52
48555;BME280;34336;48.270;16.716;2023-02-19T10:01:04;75696.22;;;18.16;59.96
48555;BME280;34336;48.270;16.716;2023-02-19T10:03:36;75651.91;;;18.16;58.49
48555;BME280;34336;48.270;16.716;2023-02-19T10:06:25;75653.84;;;18.16;58.45
48555;BME280;34336;48.270;16.716;2023-02-19T10:09:22;75736.69;;;18.16;57.96
48555;BME280;34336;48.270;16.716;2023-02-19T10:11:50;75698.16;;;18.16;58.35
48555;BME280;34336;48.270;16.716;2023-02-19T10:14:22;75711.63;;;18.16;57.88
48555;BME280;34336;48.270;16.716;2023-02-19T10:16:57;75634.56;;;18.16;57.18
48555;BME280;34336;48.270;16.716;2023-02-19T10:19:26;75680.81;;;18.16;56.56
48555;BME280;34336;48.270;16.716;2023-02-19T10:21:53;75725.13;;;18.16;56.74
48555;BME280;34336;48.270;16.716;2023-02-19T10:24:26;75680.81;;;18.16;57.13
48555;BME280;34336;48.270;16.716;2023-02-19T10:26:54;75711.63;;;18.16;55.95
48555;BME280;34336;48.270;16.716;2023-02-19T10:29:22;75682.75;;;18.16;56.43
48555;BME280;34336;48.270;16.716;2023-02-19T10:32:11;75653.84;;;18.16;55.98
48555;BME280;34336;48.270;16.716;2023-02-19T10:34:40;75626.88;;;18.16;56.06
48555;BME280;34336;48.270;16.716;2023-02-19T10:37:12;75580.63;;;18.16;55.33
48555;BME280;34336;48.270;16.716;2023-02-19T10:39:46;75623.03;;;18.16;54.16
48555;BME280;34336;48.270;16.716;2023-02-19T10:42:19;75619.16;;;18.16;53.81
48555;BME280;34336;48.270;16.716;2023-02-19T10:44:53;75596.03;;;18.16;53.88
48555;BME280;34336;48.270;16.716;2023-02-19T10:47:25;75574.84;;;18.16;54.35
48555;BME280;34336;48.270;16.716;2023-02-19T10:49:56;75584.50;;;18.16;53.00
48555;BME280;34336;48.270;16.716;2023-02-19T10:52:30;75553.66;;;18.16;52.24
48555;BME280;34336;48.270;16.716;2023-02-19T10:55:30;75519.00;;;18.16;53.04
48555;BME280;34336;48.270;16.716;2023-02-19T10:58:19;75555.59;;;18.16;51.44
48555;BME280;34336;48.270;16.716;2023-02-19T11:13:41;75515.13;;;18.16;49.53
48555;BME280;34336;48.270;16.716;2023-02-19T11:16:07;75588.34;;;18.16;49.22
48555;BME280;34336;48.270;16.716;2023-02-19T11:18:34;75580.63;;;18.16;49.22
48555;BME280;34336;48.270;16.716;2023-02-19T11:21:04;75574.84;;;18.16;48.40
48555;BME280;34336;48.270;16.716;2023-02-19T11:23:42;75580.63;;;18.16;48.53
48555;BME280;34336;48.270;16.716;2023-02-19T11:26:22;75542.09;;;18.16;48.00
48555;BME280;34336;48.270;16.716;2023-02-19T11:28:57;75582.56;;;18.16;48.29
48555;BME280;34336;48.270;16.716;2023-02-19T11:31:30;75592.19;;;18.16;49.17
48555;BME280;34336;48.270;16.716;2023-02-19T11:36:40;75572.94;;;18.16;49.48
48555;BME280;34336;48.270;16.716;2023-02-19T11:57:47;75865.75;;;18.16;58.13
48555;BME280;34336;48.270;16.716;2023-02-19T12:31:27;76122.00;;;18.16;65.84
48555;BME280;34336;48.270;16.716;2023-02-19T12:45:16;76106.59;;;18.16;74.54
48555;BME280;34336;48.270;16.716;2023-02-19T12:48:05;76081.56;;;18.16;73.58
48555;BME280;34336;48.270;16.716;2023-02-19T12:50:34;76073.84;;;18.16;71.31
48555;BME280;34336;48.270;16.716;2023-02-19T12:55:42;76131.66;;;18.16;71.83
48555;BME280;34336;48.270;16.716;2023-02-19T12:58:27;76150.91;;;18.16;74.70
48555;BME280;34336;48.270;16.716;2023-02-19T13:00:56;76139.34;;;18.16;75.65
48555;BME280;34336;48.270;16.716;2023-02-19T13:03:34;76104.69;;;18.16;72.86
48555;BME280;34336;48.270;16.716;2023-02-19T13:09:02;76043.03;;;18.16;69.26
48555;BME280;34336;48.270;16.716;2023-02-19T13:11:44;76019.91;;;18.16;68.85
48555;BME280;34336;48.270;16.716;2023-02-19T13:17:05;76016.03;;;18.16;64.11
48555;BME280;34336;48.270;16.716;2023-02-19T13:19:36;76019.91;;;18.16;62.73
48555;BME280;34336;48.270;16.716;2023-02-19T13:25:16;76096.97;;;18.16;65.14
48555;BME280;34336;48.270;16.716;2023-02-19T13:27:50;76143.22;;;18.16;67.69
48555;BME280;34336;48.270;16.716;2023-02-19T13:30:32;76162.47;;;18.16;68.06
48555;BME280;34336;48.270;16.716;2023-02-19T13:33:20;76181.75;;;18.16;68.43
48555;BME280;34336;48.270;16.716;2023-02-19T13:35:58;76166.34;;;18.16;69.02
48555;BME280;34336;48.270;16.716;2023-02-19T13:38:35;76175.97;;;18.16;69.76
48555;BME280;34336;48.270;16.716;2023-02-19T13:41:03;76197.16;;;18.16;71.11
48555;BME280;34336;48.270;16.716;2023-02-19T13:43:33;76202.94;;;18.16;70.52
48555;BME280;34336;48.270;16.716;2023-02-19T13:46:04;76228.00;;;18.16;72.43
48555;BME280;34336;48.270;16.716;2023-02-19T13:48:35;76270.38;;;18.16;73.90
48555;BME280;34336;48.270;16.716;2023-02-19T13:56:35;76332.03;;;18.16;78.41
48555;BME280;34336;48.270;16.716;2023-02-19T13:59:34;76364.81;;;18.16;81.86
48555;BME280;34336;48.270;16.716;2023-02-19T14:02:04;76384.06;;;18.16;84.09
48555;BME280;34336;48.270;16.716;2023-02-19T14:04:44;76393.69;;;18.16;86.89
48555;BME280;34336;48.270;16.716;2023-02-19T14:09:44;76416.81;;;18.16;91.13
48555;BME280;34336;48.270;16.716;2023-02-19T14:28:23;76470.78;;;18.16;94.41
48555;BME280;34336;48.270;16.716;2023-02-19T14:31:09;76488.13;;;18.16;95.38
48555;BME280;34336;48.270;16.716;2023-02-19T14:33:46;76488.13;;;18.16;94.73
48555;BME280;34336;48.270;16.716;2023-02-19T14:36:28;76478.50;;;18.16;94.78
48555;BME280;34336;48.270;16.716;2023-02-19T14:41:50;76470.78;;;18.16;93.33
48555;BME280;34336;48.270;16.716;2023-02-19T14:44:24;76470.78;;;18.16;92.96
48555;BME280;34336;48.270;16.716;2023-02-19T14:46:59;76461.16;;;18.16;90.95
48555;BME280;34336;48.270;16.716;2023-02-19T14:49:40;76461.16;;;18.16;91.26
48555;BME280;34336;48.270;16.716;2023-02-19T14:52:20;76465.00;;;18.16;90.19
48555;BME280;34336;48.270;16.716;2023-02-19T14:54:59;76459.22;;;18.16;88.88
48555;BME280;34336;48.270;16.716;2023-02-19T14:57:35;76447.66;;;18.16;87.79
48555;BME280;34336;48.270;16.716;2023-02-19T15:00:22;76443.81;;;18.16;85.72
48555;BME280;34336;48.270;16.716;2023-02-19T15:02:50;76441.88;;;18.16;85.00
48555;BME280;34336;48.270;16.716;2023-02-19T15:05:21;76434.16;;;18.16;84.71
48555;BME280;34336;48.270;16.716;2023-02-19T15:07:50;76422.59;;;18.16;83.16
48555;BME280;34336;48.270;16.716;2023-02-19T15:10:18;76412.97;;;18.16;82.23
48555;BME280;34336;48.270;16.716;2023-02-19T15:12:48;76405.25;;;18.16;82.11
48555;BME280;34336;48.270;16.716;2023-02-19T15:15:27;76403.34;;;18.16;81.17
48555;BME280;34336;48.270;16.716;2023-02-19T15:17:56;76403.34;;;18.16;79.39
48555;BME280;34336;48.270;16.716;2023-02-19T15:20:27;76397.56;;;18.16;78.77
48555;BME280;34336;48.270;16.716;2023-02-19T15:22:56;76395.63;;;18.16;77.75
48555;BME280;34336;48.270;16.716;2023-02-19T15:25:42;76403.34;;;18.16;77.21
48555;BME280;34336;48.270;16.716;2023-02-19T15:33:25;76428.38;;;18.16;76.47
48555;BME280;34336;48.270;16.716;2023-02-19T15:35:55;76439.94;;;18.16;77.13
48555;BME280;34336;48.270;16.716;2023-02-19T15:38:23;76455.38;;;18.16;76.60
48555;BME280;34336;48.270;16.716;2023-02-19T15:40:51;76478.50;;;18.16;77.27
48555;BME280;34336;48.270;16.716;2023-02-19T15:43:37;76497.75;;;18.16;78.77
48555;BME280;34336;48.270;16.716;2023-02-19T15:46:11;76611.44;;;18.16;77.26
48555;BME280;34336;48.270;16.716;2023-02-19T15:48:46;76696.25;;;18.16;79.51
48555;BME280;34336;48.270;16.716;2023-02-19T15:51:21;76763.69;;;18.16;83.10
48555;BME280;34336;48.270;16.716;2023-02-19T15:53:54;76808.00;;;18.16;85.35
48555;BME280;34336;48.270;16.716;2023-02-19T15:56:23;76833.06;;;18.16;86.99
48555;BME280;34336;48.270;16.716;2023-02-19T15:59:33;76848.47;;;18.16;88.02